.
WxDataArchive / Data Records for 2005-12-23
2005-12-22 December 2005 2005-12-24

Data Records for Friday, 23 December 2005

Time	Temp	Chill	HIndex	Humid	Dewpt	 Wind 	HiWind	WindDir	Rain 	Barom 
-----	----	-----	------	-----	-----	------	------	-------	-----	----- 
00:00	34.6	30.1	34.6	78	28.5	5	13	248	0.00	29.908 
00:05	34.4	30.8	34.4	78	28.3	4	10	248	0.00	29.908 
00:10	34.4	29.9	34.4	78	28.3	5	14	248	0.00	29.908 
00:15	34.4	29.9	34.4	78	28.3	5	11	248	0.00	29.903 
00:20	34.4	29.9	34.4	78	28.3	5	10	248	0.00	29.903 
00:25	34.4	30.8	34.4	78	28.3	4	9	270	0.00	29.903 
00:30	34.4	30.8	34.4	78	28.3	4	9	270	0.00	29.899 
00:35	34.4	30.8	34.4	78	28.3	4	8	248	0.00	29.899 
00:40	34.3	30.7	34.3	79	28.5	4	9	248	0.00	29.899 
00:45	34.4	29.9	34.4	78	28.3	5	13	248	0.00	29.895 
00:50	34.4	29.9	34.4	78	28.3	5	11	248	0.00	29.895 
00:55	34.4	29.9	34.4	78	28.3	5	10	248	0.00	29.895 
01:00	34.4	30.8	34.4	78	28.3	4	10	248	0.00	29.895 
01:05	34.3	30.7	34.3	78	28.2	4	9	248	0.00	29.895 
01:10	34.4	29.9	34.4	78	28.3	5	11	248	0.00	29.895 
01:15	34.4	29.9	34.4	78	28.3	5	10	248	0.00	29.895 
01:20	34.4	29.9	34.4	78	28.3	5	11	248	0.00	29.895 
01:25	34.6	31.1	34.6	78	28.5	4	9	248	0.00	29.895 
01:30	34.4	30.8	34.4	78	28.3	4	10	248	0.00	29.894 
01:35	34.4	30.8	34.4	78	28.3	4	13	248	0.00	29.894 
01:40	34.6	31.1	34.6	78	28.5	4	7	248	0.00	29.894 
01:45	34.6	31.1	34.6	78	28.5	4	16	248	0.00	29.886 
01:50	34.7	30.2	34.7	78	28.6	5	11	248	0.00	29.886 
01:55	34.9	31.4	34.9	78	28.7	4	9	248	0.00	29.886 
02:00	34.9	31.4	34.9	78	28.7	4	11	248	0.00	29.885 
02:05	35.0	31.5	35.0	78	28.8	4	7	248	0.00	29.885 
02:10	35.0	31.5	35.0	78	28.8	4	11	248	0.00	29.885 
02:15	35.2	31.8	35.2	77	28.7	4	15	248	0.00	29.882 
02:20	35.2	30.8	35.2	77	28.7	5	12	248	0.00	29.882 
02:25	35.2	30.8	35.2	77	28.7	5	10	248	0.00	29.882 
02:30	35.0	35.0	35.0	78	28.8	3	7	248	0.00	29.882 
02:35	35.0	30.6	35.0	77	28.5	5	11	270	0.00	29.882 
02:40	35.0	31.5	35.0	78	28.8	4	13	248	0.00	29.882 
02:45	35.0	31.5	35.0	77	28.5	4	12	248	0.00	29.881 
02:50	35.0	30.6	35.0	78	28.8	5	11	248	0.00	29.881 
02:55	34.9	30.5	34.9	78	28.7	5	11	248	0.00	29.881 
03:00	34.9	31.4	34.9	78	28.7	4	9	248	0.00	29.881 
03:05	34.7	30.2	34.7	78	28.6	5	11	248	0.00	29.881 
03:10	34.7	34.7	34.7	78	28.6	3	7	248	0.00	29.881 
03:15	34.6	31.1	34.6	78	28.5	4	10	248	0.00	29.879 
03:20	34.4	30.8	34.4	78	28.3	4	10	248	0.00	29.879 
03:25	34.3	30.7	34.3	78	28.2	4	7	248	0.00	29.879 
03:30	34.1	34.1	34.1	79	28.3	3	7	248	0.00	29.875 
03:35	34.0	34.0	34.0	79	28.2	3	7	248	0.00	29.875 
03:40	34.0	34.0	34.0	79	28.2	3	7	248	0.00	29.875 
03:45	33.8	33.8	33.8	79	28.0	3	7	248	0.00	29.868 
03:50	33.7	33.7	33.7	80	28.2	3	7	248	0.00	29.868 
03:55	33.5	33.5	33.5	80	28.0	2	7	248	0.00	29.868 
04:00	33.4	33.4	33.4	80	27.9	3	12	248	0.00	29.867 
04:05	33.4	33.4	33.4	80	27.9	3	6	248	0.00	29.867 
04:10	33.2	33.2	33.2	84	28.9	3	10	248	0.00	29.867 
04:15	33.2	29.5	33.2	80	27.7	4	11	248	0.00	29.861 
04:20	33.1	33.1	33.1	81	27.9	3	10	248	0.00	29.861 
04:25	33.1	33.1	33.1	81	27.9	3	8	248	0.00	29.861 
04:30	33.1	33.1	33.1	80	27.6	3	6	248	0.00	29.857 
04:35	33.1	33.1	33.1	81	27.9	3	9	248	0.00	29.857 
04:40	33.1	33.1	33.1	80	27.6	3	6	248	0.00	29.857 
04:45	33.1	33.1	33.1	80	27.6	3	6	248	0.00	29.856 
04:50	33.1	33.1	33.1	81	27.9	3	5	248	0.00	29.856 
04:55	33.1	33.1	33.1	81	27.9	3	7	248	0.00	29.856 
05:00	33.2	33.2	33.2	81	28.0	3	7	248	0.00	29.851 
05:05	33.4	33.4	33.4	80	27.9	3	7	248	0.00	29.851 
05:10	33.4	29.7	33.4	80	27.9	4	10	248	0.00	29.851 
05:15	33.4	33.4	33.4	80	27.9	2	9	248	0.00	29.844 
05:20	33.5	29.8	33.5	80	28.0	4	10	248	0.00	29.844 
05:25	33.5	33.5	33.5	80	28.0	3	9	248	0.00	29.844 
05:30	33.5	33.5	33.5	80	28.0	3	9	248	0.00	29.843 
05:35	33.5	33.5	33.5	80	28.0	3	7	248	0.00	29.843 
05:40	33.7	33.7	33.7	80	28.2	3	7	248	0.00	29.843 
05:45	33.7	33.7	33.7	80	28.2	3	8	248	0.00	29.835 
05:50	33.8	33.8	33.8	80	28.3	3	8	248	0.00	29.835 
05:55	33.8	30.2	33.8	80	28.3	4	9	248	0.00	29.835 
06:00	33.8	33.8	33.8	80	28.3	3	6	248	0.00	29.834 
06:05	34.0	30.4	34.0	80	28.5	4	12	248	0.00	29.834 
06:10	34.0	34.0	34.0	80	28.5	2	6	248	0.00	29.834 
06:15	34.0	34.0	34.0	80	28.5	3	6	248	0.00	29.836 
06:20	34.0	34.0	34.0	80	28.5	3	9	248	0.00	29.836 
06:25	34.1	34.1	34.1	80	28.6	2	6	270	0.00	29.836 
06:30	34.1	34.1	34.1	80	28.6	3	7	248	0.00	29.833 
06:35	34.1	34.1	34.1	80	28.6	2	6	248	0.00	29.833 
06:40	34.0	34.0	34.0	80	28.5	2	5	248	0.00	29.833 
06:45	34.1	34.1	34.1	80	28.6	3	9	248	0.00	29.824 
06:50	34.1	34.1	34.1	80	28.6	2	6	248	0.00	29.824 
06:55	34.1	34.1	34.1	80	28.6	2	6	248	0.00	29.824 
07:00	34.1	34.1	34.1	80	28.6	2	7	248	0.00	29.819 
07:05	34.1	34.1	34.1	80	28.6	3	7	248	0.00	29.819 
07:10	34.1	34.1	34.1	81	28.9	2	6	248	0.00	29.819 
07:15	34.1	34.1	34.1	80	28.6	2	6	248	0.00	29.814 
07:20	34.1	34.1	34.1	80	28.6	2	9	248	0.00	29.814 
07:25	34.3	34.3	34.3	81	29.1	3	12	248	0.00	29.814 
07:30	34.3	34.3	34.3	80	28.8	3	9	248	0.00	29.809 
07:35	34.4	34.4	34.4	80	28.9	2	6	270	0.00	29.809 
07:40	34.4	34.4	34.4	81	29.2	3	8	248	0.00	29.809 
07:45	34.4	34.4	34.4	81	29.2	2	7	248	0.00	29.792 
07:50	34.4	34.4	34.4	81	29.2	2	10	270	0.00	29.792 
07:55	34.6	34.6	34.6	81	29.4	3	10	248	0.00	29.792 
08:00	34.7	34.7	34.7	81	29.5	3	9	270	0.00	29.775 
08:05	34.9	34.9	34.9	80	29.4	3	10	68	0.00	29.775 
08:10	34.9	34.9	34.9	80	29.4	3	10	270	0.00	29.775 
08:15	34.9	34.9	34.9	80	29.4	3	8	248	0.00	29.776 
08:20	35.0	35.0	35.0	80	29.5	3	9	248	0.00	29.776 
08:25	35.2	35.2	35.2	80	29.7	3	7	248	0.00	29.776 
08:30	35.2	35.2	35.2	80	29.7	3	6	248	0.00	29.782 
08:35	35.3	31.9	35.3	79	29.4	4	12	248	0.00	29.782 
08:40	35.3	31.9	35.3	79	29.4	4	12	248	0.00	29.782 
08:45	35.5	32.1	35.5	79	29.6	4	10	248	0.00	29.792 
08:50	35.6	32.2	35.6	79	29.7	4	9	248	0.00	29.792 
08:55	35.8	32.5	35.8	79	29.9	4	7	248	0.00	29.792 
09:00	35.9	35.9	35.9	78	29.7	3	9	248	0.00	29.800 
09:05	35.9	32.6	35.9	78	29.7	4	11	248	0.00	29.800 
09:10	36.0	32.7	36.0	78	29.8	4	10	270	0.00	29.800 
09:15	36.0	31.8	36.0	78	29.8	5	11	248	0.00	29.800 
09:20	36.0	32.7	36.0	78	29.8	4	13	248	0.00	29.800 
09:25	36.2	32.0	36.2	78	30.0	5	13	248	0.00	29.800 
09:30	36.2	32.0	36.2	78	30.0	5	11	248	0.00	29.800 
09:35	36.2	32.0	36.2	78	30.0	5	13	248	0.00	29.800 
09:40	36.3	31.4	36.3	77	29.8	6	13	270	0.00	29.800 
09:45	36.5	32.4	36.5	77	30.0	5	12	248	0.00	29.796 
09:50	36.5	32.4	36.5	77	30.0	5	12	248	0.00	29.796 
09:55	36.6	32.5	36.6	77	30.1	5	12	248	0.00	29.796 
10:00	36.5	32.4	36.5	77	30.0	5	12	248	0.00	29.799 
10:05	36.5	33.3	36.5	77	30.0	4	10	248	0.00	29.799 
10:10	36.5	32.4	36.5	77	30.0	5	11	248	0.00	29.799 
10:15	36.8	32.7	36.8	77	30.3	5	10	248	0.00	29.786 
10:20	37.0	33.9	37.0	80	31.4	4	14	248	0.00	29.786 
10:25	37.2	33.2	37.2	76	30.3	5	12	248	0.00	29.786 
10:30	37.2	32.4	37.2	76	30.3	6	14	248	0.00	29.783 
10:35	37.5	33.5	37.5	76	30.6	5	12	248	0.00	29.783 
10:40	37.8	33.9	37.8	75	30.6	5	11	248	0.00	29.783 
10:45	37.8	33.9	37.8	75	30.6	5	14	248	0.00	29.777 
10:50	37.8	33.1	37.8	75	30.6	6	16	248	0.00	29.777 
10:55	38.0	33.4	38.0	74	30.5	6	14	248	0.00	29.777 
11:00	38.3	34.5	38.3	74	30.8	5	12	248	0.01	29.780 
11:05	38.5	34.0	38.5	73	30.6	6	14	270	0.00	29.780 
11:10	38.3	33.7	38.3	74	30.8	6	12	248	0.00	29.780 
11:15	38.2	33.6	38.2	74	30.7	6	14	248	0.01	29.762 
11:20	38.0	33.4	38.0	74	30.5	6	12	270	0.00	29.762 
11:25	38.0	32.7	38.0	74	30.5	7	18	248	0.00	29.762 
11:30	38.0	33.4	38.0	74	30.5	6	11	248	0.00	29.754 
11:35	38.0	32.7	38.0	75	30.8	7	15	248	0.00	29.754 
11:40	37.9	33.3	37.9	75	30.7	6	13	248	0.01	29.754 
11:45	37.9	32.6	37.9	75	30.7	7	17	248	0.00	29.754 
11:50	37.8	33.1	37.8	75	30.6	6	12	248	0.00	29.754 
11:55	37.9	33.3	37.9	75	30.7	6	12	248	0.00	29.754 
12:00	38.3	34.5	38.3	75	31.1	5	12	270	0.00	29.752 
12:05	38.6	34.8	38.6	74	31.0	5	11	248	0.00	29.752 
12:10	38.9	36.0	38.9	73	31.0	4	12	248	0.01	29.752 
12:15	39.1	34.7	39.1	73	31.2	6	17	248	0.00	29.745 
12:20	39.2	34.8	39.2	73	31.3	6	13	248	0.00	29.745 
12:25	39.2	34.2	39.2	72	30.9	7	18	248	0.00	29.745 
12:30	39.3	35.7	39.3	73	31.4	5	10	248	0.00	29.739 
12:35	39.5	36.7	39.5	72	31.2	4	11	248	0.00	29.739 
12:40	39.8	37.1	39.8	72	31.5	4	12	248	0.00	29.739 
12:45	39.8	35.5	39.8	71	31.2	6	14	248	0.00	29.730 
12:50	39.8	34.9	39.8	72	31.5	7	14	248	0.00	29.730 
12:55	39.9	36.4	39.9	71	31.3	5	11	248	0.00	29.730 
13:00	40.1	36.6	40.1	71	31.5	5	14	248	0.00	29.724 
13:05	40.1	36.6	40.1	71	31.5	5	12	248	0.00	29.724 
13:10	40.2	37.5	40.2	71	31.6	4	10	248	0.00	29.724 
13:15	40.3	37.7	40.3	71	31.7	4	8	248	0.00	29.720 
13:20	40.6	37.2	40.6	70	31.6	5	10	248	0.00	29.720 
13:25	40.8	38.2	40.8	70	31.8	4	12	248	0.01	29.720 
13:30	40.9	38.4	40.9	70	31.9	4	12	248	0.00	29.718 
13:35	41.1	38.6	41.1	70	32.1	4	10	248	0.00	29.718 
13:40	41.1	38.6	41.1	69	31.7	4	10	248	0.00	29.718 
13:45	41.2	37.9	41.2	69	31.8	5	11	248	0.00	29.719 
13:50	41.2	37.2	41.2	69	31.8	6	13	248	0.00	29.719 
13:55	41.2	37.2	41.2	69	31.8	6	12	248	0.00	29.719 
14:00	41.3	38.0	41.3	69	31.9	5	9	248	0.00	29.720 
14:05	41.5	38.2	41.5	69	32.1	5	10	248	0.00	29.720 
14:10	41.5	38.2	41.5	69	32.1	5	14	248	0.00	29.720 
14:15	41.5	38.2	41.5	69	32.1	5	13	248	0.00	29.718 
14:20	41.5	39.1	41.5	69	32.1	4	10	248	0.00	29.718 
14:25	41.6	39.2	41.6	69	32.2	4	9	248	0.00	29.718 
14:30	41.8	38.6	41.8	69	32.4	5	14	248	0.00	29.718 
14:35	41.8	39.4	41.8	69	32.4	4	9	248	0.00	29.718 
14:40	41.8	38.6	41.8	69	32.4	5	11	248	0.00	29.718 
14:45	41.8	39.4	41.8	69	32.4	4	10	248	0.00	29.718 
14:50	41.8	38.6	41.8	69	32.4	5	11	248	0.00	29.718 
14:55	41.9	39.5	41.9	69	32.5	4	9	248	0.00	29.718 
15:00	41.9	39.5	41.9	69	32.5	4	10	248	0.00	29.718 
15:05	41.9	39.5	41.9	69	32.5	4	11	248	0.00	29.718 
15:10	41.9	39.5	41.9	69	32.5	4	13	225	0.00	29.718 
15:15	41.8	39.4	41.8	69	32.4	4	11	248	0.00	29.721 
15:20	41.8	39.4	41.8	69	32.4	4	10	248	0.00	29.721 
15:25	41.8	39.4	41.8	69	32.4	4	11	248	0.00	29.721 
15:30	41.9	39.5	41.9	69	32.5	4	10	248	0.00	29.724 
15:35	42.1	42.1	42.1	69	32.7	3	10	248	0.00	29.724 
15:40	42.1	39.7	42.1	69	32.7	4	8	248	0.00	29.724 
15:45	42.1	42.1	42.1	69	32.7	3	10	248	0.00	29.731 
15:50	41.9	39.5	41.9	69	32.5	4	10	248	0.00	29.731 
15:55	41.8	41.8	41.8	70	32.7	3	10	248	0.00	29.731 
16:00	41.6	39.2	41.6	70	32.6	4	7	248	0.00	29.736 
16:05	41.5	39.1	41.5	70	32.5	4	9	248	0.00	29.736 
16:10	41.3	38.0	41.3	71	32.6	5	8	248	0.00	29.736 
16:15	41.2	41.2	41.2	71	32.5	3	10	248	0.00	29.741 
16:20	41.2	38.7	41.2	71	32.5	4	10	248	0.00	29.741 
16:25	41.1	38.6	41.1	71	32.4	4	8	248	0.00	29.741 
16:30	41.1	41.1	41.1	72	32.8	3	6	248	0.00	29.746 
16:35	40.9	40.9	40.9	72	32.6	3	8	248	0.00	29.746 
16:40	40.8	38.2	40.8	72	32.5	4	11	248	0.00	29.746 
16:45	40.6	40.6	40.6	73	32.6	3	6	248	0.00	29.752 
16:50	40.5	40.5	40.5	73	32.5	3	9	248	0.00	29.752 
16:55	40.5	40.5	40.5	73	32.5	3	8	248	0.00	29.752 
17:00	40.3	40.3	40.3	73	32.3	3	7	248	0.00	29.757 
17:05	40.2	40.2	40.2	74	32.6	3	5	248	0.00	29.757 
17:10	40.2	40.2	40.2	74	32.6	3	6	248	0.00	29.757 
17:15	40.1	40.1	40.1	74	32.5	3	8	248	0.00	29.761 
17:20	39.9	39.9	39.9	75	32.6	2	5	248	0.00	29.761 
17:25	39.9	39.9	39.9	75	32.6	3	6	248	0.00	29.761 
17:30	39.8	39.8	39.8	75	32.5	2	5	248	0.00	29.757 
17:35	39.6	39.6	39.6	76	32.7	2	5	248	0.00	29.757 
17:40	39.6	39.6	39.6	76	32.7	3	5	248	0.00	29.757 
17:45	39.5	39.5	39.5	76	32.6	2	6	248	0.00	29.758 
17:50	39.5	39.5	39.5	76	32.6	2	5	248	0.00	29.758 
17:55	39.3	39.3	39.3	77	32.7	2	5	248	0.00	29.758 
18:00	39.2	39.2	39.2	77	32.6	2	5	248	0.00	29.765 
18:05	38.9	38.9	38.9	77	32.3	2	5	248	0.00	29.765 
18:10	38.9	38.9	38.9	77	32.3	1	4	248	0.00	29.765 
18:15	38.8	38.8	38.8	78	32.5	1	4	248	0.00	29.767 
18:20	38.6	38.6	38.6	78	32.3	1	3	248	0.00	29.767 
18:25	38.5	38.5	38.5	78	32.2	1	4	225	0.00	29.767 
18:30	38.5	38.5	38.5	78	32.2	1	4	248	0.00	29.769 
18:35	38.2	38.2	38.2	79	32.3	0	2	248	0.00	29.769 
18:40	37.9	37.9	37.9	79	32.0	0	0	---	0.00	29.769 
18:45	37.5	37.5	37.5	80	31.9	0	1	248	0.00	29.770 
18:50	37.2	37.2	37.2	81	31.9	0	1	248	0.00	29.770 
18:55	37.0	37.0	37.0	81	31.7	0	1	248	0.00	29.770 
19:00	36.8	36.8	36.8	81	31.5	0	0	---	0.00	29.776 
19:05	36.6	36.6	36.6	82	31.6	0	0	---	0.00	29.776 
19:10	36.3	36.3	36.3	82	31.3	0	0	---	0.00	29.776 
19:15	36.0	36.0	36.0	83	31.3	0	2	248	0.00	29.782 
19:20	35.9	35.9	35.9	84	31.5	0	1	248	0.00	29.782 
19:25	35.8	35.8	35.8	84	31.4	0	0	---	0.00	29.782 
19:30	35.6	35.6	35.6	84	31.3	0	0	---	0.00	29.785 
19:35	35.5	35.5	35.5	84	31.2	0	0	---	0.00	29.785 
19:40	35.3	35.3	35.3	85	31.2	0	0	---	0.00	29.785 
19:45	35.2	35.2	35.2	85	31.2	0	1	248	0.00	29.785 
19:50	35.0	35.0	35.0	85	31.0	0	0	---	0.00	29.785 
19:55	34.9	34.9	34.9	86	31.1	0	0	---	0.00	29.785 
20:00	34.7	34.7	34.7	86	30.9	0	0	---	0.00	29.785 
20:05	34.7	34.7	34.7	86	30.9	0	0	---	0.00	29.785 
20:10	34.6	34.6	34.6	87	31.1	0	0	---	0.00	29.785 
20:15	34.6	34.6	34.6	87	31.1	0	0	---	0.00	29.784 
20:20	34.4	34.4	34.4	87	30.9	0	0	---	0.00	29.784 
20:25	34.3	34.3	34.3	87	30.8	0	0	---	0.00	29.784 
20:30	34.1	34.1	34.1	87	30.6	0	0	---	0.00	29.782 
20:35	34.1	34.1	34.1	88	30.9	0	0	---	0.00	29.782 
20:40	34.0	34.0	34.0	88	30.8	0	0	---	0.00	29.782 
20:45	33.8	33.8	33.8	88	30.6	0	0	---	0.00	29.780 
20:50	33.7	33.7	33.7	88	30.5	0	0	---	0.00	29.780 
20:55	33.5	33.5	33.5	88	30.3	0	0	---	0.00	29.780 
21:00	33.5	33.5	33.5	88	30.3	0	0	---	0.00	29.782 
21:05	33.4	33.4	33.4	89	30.5	0	0	---	0.00	29.782 
21:10	33.2	33.2	33.2	89	30.3	0	0	---	0.00	29.782 
21:15	33.1	33.1	33.1	89	30.2	0	0	---	0.00	29.780 
21:20	33.1	33.1	33.1	89	30.2	0	0	---	0.00	29.780 
21:25	32.9	32.9	32.9	89	30.0	0	0	---	0.00	29.780 
21:30	32.8	32.8	32.8	90	30.2	0	0	---	0.00	29.779 
21:35	32.7	32.7	32.7	90	30.1	0	0	---	0.00	29.779 
21:40	32.5	32.5	32.5	90	29.9	0	0	---	0.00	29.779 
21:45	32.4	32.4	32.4	90	29.8	0	0	---	0.00	29.777 
21:50	32.4	32.4	32.4	90	29.8	0	0	---	0.00	29.777 
21:55	32.2	32.2	32.2	91	29.9	0	0	---	0.00	29.777 
22:00	32.2	32.2	32.2	91	29.9	0	0	---	0.00	29.777 
22:05	32.2	32.2	32.2	91	29.9	0	0	---	0.00	29.777 
22:10	32.1	32.1	32.1	91	29.8	0	0	---	0.00	29.777 
22:15	32.1	32.1	32.1	91	29.8	0	0	---	0.00	29.780 
22:20	32.1	32.1	32.1	91	29.8	0	0	---	0.00	29.780 
22:25	32.1	32.1	32.1	91	29.8	0	0	---	0.00	29.780 
22:30	32.1	32.1	32.1	91	29.8	0	0	---	0.00	29.773 
22:35	32.1	32.1	32.1	91	29.8	0	0	---	0.00	29.773 
22:40	32.1	32.1	32.1	91	29.8	0	0	---	0.00	29.773 
22:45	32.1	32.1	32.1	91	29.8	0	0	---	0.00	29.775 
22:50	32.1	32.1	32.1	91	29.8	0	0	---	0.00	29.775 
22:55	32.1	32.1	32.1	91	29.8	0	0	---	0.00	29.775 
23:00	32.1	32.1	32.1	92	30.0	0	0	---	0.00	29.775 
23:05	32.2	32.2	32.2	92	30.1	0	0	---	0.00	29.775 
23:10	32.2	32.2	32.2	92	30.1	0	0	---	0.00	29.775 
23:15	32.2	32.2	32.2	92	30.1	0	0	---	0.00	29.774 
23:20	32.2	32.2	32.2	92	30.1	0	0	---	0.00	29.774 
23:25	32.2	32.2	32.2	92	30.1	0	0	---	0.00	29.774 
23:30	32.2	32.2	32.2	92	30.1	0	0	---	0.00	29.772 
23:35	32.2	32.2	32.2	92	30.1	0	0	---	0.00	29.772 
23:40	32.2	32.2	32.2	92	30.1	0	0	---	0.00	29.772 
23:45	32.1	32.1	32.1	92	30.0	0	0	---	0.00	29.770 
23:50	32.1	32.1	32.1	91	29.8	0	0	---	0.00	29.770 
23:55	32.1	32.1	32.1	91	29.8	0	0	---	0.00	29.770 

CoCoRaHS
IN-AL-39
A2 Web Hosting
Creative Commons License
GoDaddy
Look for:

loaded 2017-12-13 10:21:08 • last modified 2010-11-18 10:43:29
Privacy PolicyDisclaimer
• wx.awcolley.com is powered by PmWiki v.2002016 •
• all content (unless otherwise noted) © 2017 A W Colley